Time;durP1;ratioP1;P1;durP2;ratioP2;P2;SDS_P1;SDS_P2;PMS_P1;PMS_P2;Temp;Humidity;BMP_temperature;BMP_pressure;BME280_temperature;BME280_humidity;BME280_pressure;Samples;Min_cycle;Max_cycle;Signal;HPM_P1;HPM_P2
2021/08/18 00:02:25;;;;;;;;;;;27.10;99.20;;;;;;1977637;72;20279;-95
2021/08/18 00:05:04;;;;;;;;;;;27.10;99.00;;;;;;1982090;71;20181;-93
2021/08/18 00:07:40;;;;;;;;;;;27.10;98.20;;;;;;1960656;72;20248;-95
2021/08/18 00:10:29;;;;;;;;;;;27.10;98.00;;;;;;1976680;72;20212;-94
2021/08/18 00:13:09;;;;;;;;;;;27.10;98.00;;;;;;1978162;72;20717;-94
2021/08/18 00:15:49;;;;;;;;;;;27.10;97.90;;;;;;1977198;71;20154;-95
2021/08/18 00:18:52;;;;;;;;;;;;;;;;;;;;;
2021/08/18 00:21:37;;;;;;;;;;;27.20;98.10;;;;;;1964552;72;20315;-95
2021/08/18 00:24:11;;;;;;;;;;;27.20;98.00;;;;;;1939997;74;20284;-93
2021/08/18 00:26:54;;;;;;;;;;;27.30;97.90;;;;;;1978062;71;20207;-94
2021/08/18 00:29:41;;;;;;;;;;;27.30;97.80;;;;;;1957194;72;20169;-92
2021/08/18 00:33:03;;;;;;;;;;;27.30;97.60;;;;;;1973279;72;20234;-92
2021/08/18 00:34:57;;;;;;;;;;;27.40;97.50;;;;;;1954234;72;20154;-92
2021/08/18 00:37:35;;;;;;;;;;;27.40;97.40;;;;;;1978116;71;20142;-91
2021/08/18 00:40:11;;;;;;;;;;;27.50;97.40;;;;;;1968442;72;20252;-93
2021/08/18 00:42:43;;;;;;;;;;;27.60;97.30;;;;;;1976739;72;20199;-94
2021/08/18 00:45:14;;;;;;;;;;;27.60;97.30;;;;;;1980448;72;20208;-92
2021/08/18 00:47:48;;;;;;;;;;;27.70;96.60;;;;;;1974891;71;20167;-94
2021/08/18 00:50:22;;;;;;;;;;;27.70;96.00;;;;;;1973296;71;20565;-93
2021/08/18 00:52:57;;;;;;;;;;;27.70;95.90;;;;;;1941794;72;20799;-94
2021/08/18 00:55:30;;;;;;;;;;;27.70;95.60;;;;;;1938168;72;20259;-93
2021/08/18 00:57:59;;;;;;;;;;;27.80;96.00;;;;;;1989344;71;20282;-93
2021/08/18 01:00:30;;;;;;;;;;;27.90;96.10;;;;;;1988394;71;20175;-93
2021/08/18 01:03:04;;;;;;;;;;;27.90;96.10;;;;;;1975073;71;21105;-93
2021/08/18 01:05:34;;;;;;;;;;;27.90;96.00;;;;;;1977411;71;20214;-91
2021/08/18 01:08:04;;;;;;;;;;;28.00;95.30;;;;;;1977612;72;20112;-91
2021/08/18 01:10:35;;;;;;;;;;;28.10;95.10;;;;;;1957908;72;20252;-92
2021/08/18 01:13:06;;;;;;;;;;;28.10;94.60;;;;;;1972036;71;20185;-93
2021/08/18 01:15:36;;;;;;;;;;;28.10;94.40;;;;;;1978033;71;20197;-93
2021/08/18 01:18:09;;;;;;;;;;;28.20;93.90;;;;;;1967341;71;20159;-93
2021/08/18 01:20:49;;;;;;;;;;;28.30;93.80;;;;;;1967082;71;20151;-93
2021/08/18 01:23:42;;;;;;;;;;;28.30;93.60;;;;;;1973383;71;20203;-93
2021/08/18 01:26:12;;;;;;;;;;;28.40;93.70;;;;;;1963779;71;20146;-94
2021/08/18 01:28:44;;;;;;;;;;;28.50;94.10;;;;;;1924920;72;20182;-93
2021/08/18 01:31:29;;;;;;;;;;;28.60;94.00;;;;;;1943199;72;20589;-93
2021/08/18 01:34:03;;;;;;;;;;;28.70;93.60;;;;;;1965560;71;20194;-92
2021/08/18 01:36:31;;;;;;;;;;;28.80;93.40;;;;;;1970043;71;20185;-91
2021/08/18 01:39:28;;;;;;;;;;;28.90;93.10;;;;;;1925689;72;20226;-92
2021/08/18 01:41:42;;;;;;;;;;;29.00;92.80;;;;;;1886217;74;20263;-91
2021/08/18 01:44:11;;;;;;;;;;;29.00;93.10;;;;;;1964979;71;20738;-94
2021/08/18 01:46:50;;;;;;;;;;;29.10;92.80;;;;;;1969874;72;20191;-92
2021/08/18 01:49:23;;;;;;;;;;;29.20;93.00;;;;;;1923954;73;20230;-92
2021/08/18 01:51:57;;;;;;;;;;;29.20;92.80;;;;;;1925436;74;20147;-93
2021/08/18 01:54:27;;;;;;;;;;;29.30;92.90;;;;;;1962610;72;20255;-92
2021/08/18 01:56:57;;;;;;;;;;;29.30;93.00;;;;;;1973487;71;20367;-90
2021/08/18 01:59:28;;;;;;;;;;;29.40;93.00;;;;;;1925454;72;20249;-91
2021/08/18 02:02:12;;;;;;;;;;;29.50;92.90;;;;;;1971734;71;20185;-92
2021/08/18 02:04:49;;;;;;;;;;;29.60;92.00;;;;;;1961945;72;20215;-91
2021/08/18 02:07:21;;;;;;;;;;;29.70;92.20;;;;;;1971208;71;20234;-91
2021/08/18 02:09:53;;;;;;;;;;;29.80;92.20;;;;;;1945600;70;20298;-95
2021/08/18 02:12:25;;;;;;;;;;;29.90;91.70;;;;;;1974055;70;20150;-92
2021/08/18 02:14:54;;;;;;;;;;;30.00;91.80;;;;;;1977475;70;20167;-95
2021/08/18 02:17:24;;;;;;;;;;;30.10;91.70;;;;;;1935270;72;20199;-93
2021/08/18 02:19:58;;;;;;;;;;;30.20;91.30;;;;;;1983440;70;20228;-92
2021/08/18 02:22:37;;;;;;;;;;;30.30;91.10;;;;;;1974422;70;20255;-93
2021/08/18 02:25:07;;;;;;;;;;;30.50;91.00;;;;;;1977630;71;20187;-79
2021/08/18 02:27:36;;;;;;;;;;;30.60;90.40;;;;;;1902527;73;20537;-79
2021/08/18 02:30:06;;;;;;;;;;;30.70;90.00;;;;;;1921526;73;20226;-79
2021/08/18 02:32:38;;;;;;;;;;;30.80;88.80;;;;;;1926379;73;20205;-78
2021/08/18 02:35:08;;;;;;;;;;;31.00;89.90;;;;;;1974674;71;20289;-78
2021/08/18 02:37:52;;;;;;;;;;;;;;;;;;;;;
2021/08/18 02:40:25;;;;;;;;;;;31.20;86.50;;;;;;1937825;71;20175;-77
2021/08/18 02:42:56;;;;;;;;;;;31.30;87.90;;;;;;1979869;70;20197;-77
2021/08/18 02:46:01;;;;;;;;;;;31.40;88.30;;;;;;1969852;71;20171;-78
2021/08/18 02:48:14;;;;;;;;;;;31.50;85.50;;;;;;1953604;70;20252;-78
2021/08/18 02:50:44;;;;;;;;;;;31.60;83.80;;;;;;1966670;71;20842;-78
2021/08/18 02:53:13;;;;;;;;;;;31.60;83.90;;;;;;1978387;71;20173;-79
2021/08/18 02:55:43;;;;;;;;;;;31.70;80.60;;;;;;1983717;71;20423;-79
2021/08/18 02:58:13;;;;;;;;;;;31.80;80.60;;;;;;1975801;71;20184;-78
2021/08/18 03:00:46;;;;;;;;;;;31.90;81.80;;;;;;1952345;71;20548;-79
2021/08/18 03:03:15;;;;;;;;;;;32.00;81.50;;;;;;1958507;71;20231;-80
2021/08/18 03:05:46;;;;;;;;;;;32.10;80.70;;;;;;1980431;71;20162;-79
2021/08/18 03:08:19;;;;;;;;;;;32.20;80.20;;;;;;1941539;72;20225;-79
2021/08/18 03:10:48;;;;;;;;;;;32.30;79.20;;;;;;1985580;71;20218;-79
2021/08/18 03:13:18;;;;;;;;;;;32.30;80.80;;;;;;1941169;72;20230;-79
2021/08/18 03:15:50;;;;;;;;;;;32.40;80.90;;;;;;1909432;74;20267;-77
2021/08/18 03:18:20;;;;;;;;;;;32.50;77.90;;;;;;1911052;74;20261;-78
2021/08/18 03:20:49;;;;;;;;;;;32.60;77.80;;;;;;1908811;74;20189;-79
2021/08/18 03:23:19;;;;;;;;;;;32.70;78.20;;;;;;1901721;74;20174;-80
2021/08/18 03:25:48;;;;;;;;;;;32.80;76.10;;;;;;1946495;72;20294;-78
2021/08/18 03:28:19;;;;;;;;;;;32.80;75.10;;;;;;1949173;72;20436;-78
2021/08/18 03:30:48;;;;;;;;;;;32.90;75.40;;;;;;1902271;74;20533;-79
2021/08/18 03:33:18;;;;;;;;;;;32.90;74.00;;;;;;1941140;72;20476;-77
2021/08/18 03:35:48;;;;;;;;;;;32.90;74.40;;;;;;1945236;71;20158;-78
2021/08/18 03:38:18;;;;;;;;;;;32.80;74.80;;;;;;1942412;71;20227;-79
2021/08/18 03:40:52;;;;;;;;;;;32.80;75.50;;;;;;1936531;73;20502;-78
2021/08/18 03:43:20;;;;;;;;;;;32.80;74.70;;;;;;1931726;73;20210;-79
2021/08/18 03:45:50;;;;;;;;;;;32.80;74.40;;;;;;1945570;73;20170;-78
2021/08/18 03:48:20;;;;;;;;;;;32.90;73.40;;;;;;1922545;72;20484;-79
2021/08/18 03:50:50;;;;;;;;;;;32.90;73.90;;;;;;1938063;73;20191;-80
2021/08/18 03:53:19;;;;;;;;;;;33.00;74.10;;;;;;1942426;73;20224;-79
2021/08/18 03:55:49;;;;;;;;;;;33.20;73.00;;;;;;1935243;72;20581;-77
2021/08/18 03:58:19;;;;;;;;;;;33.30;72.00;;;;;;1934413;73;20145;-80
2021/08/18 04:00:50;;;;;;;;;;;33.40;72.40;;;;;;1906101;74;20267;-78
2021/08/18 04:03:20;;;;;;;;;;;33.40;71.30;;;;;;1936762;73;20182;-78
2021/08/18 04:06:12;;;;;;;;;;;33.40;71.90;;;;;;1951086;72;20191;-82
2021/08/18 04:08:32;;;;;;;;;;;33.40;72.60;;;;;;1902118;73;20499;-79
2021/08/18 04:11:11;;;;;;;;;;;33.50;71.60;;;;;;1932847;72;20159;-78
2021/08/18 04:13:38;;;;;;;;;;;33.50;71.40;;;;;;1916565;73;20470;-79
2021/08/18 04:16:11;;;;;;;;;;;33.60;71.50;;;;;;1913160;74;20187;-79
2021/08/18 04:18:44;;;;;;;;;;;33.60;70.70;;;;;;1939816;72;20158;-80
2021/08/18 04:21:14;;;;;;;;;;;33.60;72.60;;;;;;1935640;72;20180;-77
2021/08/18 04:23:44;;;;;;;;;;;33.70;71.40;;;;;;1949226;72;20437;-78
2021/08/18 04:26:13;;;;;;;;;;;33.70;69.30;;;;;;1954102;71;20159;-80
2021/08/18 04:28:43;;;;;;;;;;;33.80;68.60;;;;;;1957882;71;20422;-80
2021/08/18 04:31:13;;;;;;;;;;;33.90;69.30;;;;;;1951857;73;20154;-79
2021/08/18 04:33:43;;;;;;;;;;;34.00;67.10;;;;;;1950817;72;20230;-80
2021/08/18 04:36:13;;;;;;;;;;;34.00;66.90;;;;;;1949097;72;20175;-78
2021/08/18 04:38:42;;;;;;;;;;;34.00;66.30;;;;;;1902712;74;20209;-80
2021/08/18 04:41:12;;;;;;;;;;;34.00;66.70;;;;;;1891631;74;20176;-79
2021/08/18 04:43:42;;;;;;;;;;;34.00;66.70;;;;;;1941844;73;20155;-81
2021/08/18 04:46:11;;;;;;;;;;;34.00;67.20;;;;;;1928996;72;20226;-78
2021/08/18 04:48:41;;;;;;;;;;;34.00;66.40;;;;;;1925796;73;20237;-78
2021/08/18 04:51:13;;;;;;;;;;;34.10;66.40;;;;;;1933292;73;20172;-78
2021/08/18 04:53:43;;;;;;;;;;;34.20;66.40;;;;;;1941759;72;20628;-78
2021/08/18 04:56:14;;;;;;;;;;;34.30;65.90;;;;;;1934517;73;20415;-76
2021/08/18 04:58:44;;;;;;;;;;;34.30;64.10;;;;;;1887832;73;20205;-76
2021/08/18 05:01:13;;;;;;;;;;;34.30;63.60;;;;;;1934357;72;20203;-79
2021/08/18 05:03:43;;;;;;;;;;;34.20;62.80;;;;;;1926440;72;20244;-77
2021/08/18 05:06:13;;;;;;;;;;;34.20;63.70;;;;;;1933363;73;20187;-78
2021/08/18 05:08:43;;;;;;;;;;;34.20;65.00;;;;;;1940754;72;20124;-77
2021/08/18 05:11:15;;;;;;;;;;;34.30;66.70;;;;;;1939904;72;20248;-77
2021/08/18 05:13:45;;;;;;;;;;;34.30;65.90;;;;;;1944946;73;20211;-78
2021/08/18 05:16:14;;;;;;;;;;;34.40;64.40;;;;;;1945657;73;20199;-77
2021/08/18 05:18:44;;;;;;;;;;;34.40;65.10;;;;;;1937530;72;20170;-77
2021/08/18 05:21:14;;;;;;;;;;;34.50;65.50;;;;;;1948704;72;20427;-78
2021/08/18 05:23:43;;;;;;;;;;;34.50;62.10;;;;;;1945797;71;20195;-77
2021/08/18 05:26:13;;;;;;;;;;;34.50;63.90;;;;;;1949215;72;20203;-78
2021/08/18 05:28:43;;;;;;;;;;;34.40;62.90;;;;;;1955280;72;20171;-77
2021/08/18 05:31:13;;;;;;;;;;;34.40;63.80;;;;;;1953378;72;20211;-77
2021/08/18 05:33:47;;;;;;;;;;;34.40;64.90;;;;;;1947646;72;20274;-76
2021/08/18 05:36:14;;;;;;;;;;;34.40;67.30;;;;;;1953653;72;20179;-77
2021/08/18 05:38:50;;;;;;;;;;;34.50;64.70;;;;;;1944653;72;20384;-78
2021/08/18 05:45:05;;;;;;;;;;;34.80;63.00;;;;;;1792934;74;20180;-81
2021/08/18 05:47:37;;;;;;;;;;;34.80;62.90;;;;;;1884248;74;20210;-79
2021/08/18 05:50:07;;;;;;;;;;;34.80;61.20;;;;;;1885680;74;20149;-78
2021/08/18 05:52:36;;;;;;;;;;;34.80;61.40;;;;;;1880388;74;20287;-78
2021/08/18 05:55:06;;;;;;;;;;;34.80;61.10;;;;;;1880516;74;20231;-80
2021/08/18 05:57:36;;;;;;;;;;;34.90;59.40;;;;;;1853655;76;20812;-78
2021/08/18 06:00:07;;;;;;;;;;;34.90;59.10;;;;;;1896546;74;20253;-78
2021/08/18 06:02:38;;;;;;;;;;;35.00;59.50;;;;;;1895840;74;20231;-79
2021/08/18 06:05:09;;;;;;;;;;;35.10;58.50;;;;;;1853917;76;20211;-75
2021/08/18 06:07:39;;;;;;;;;;;35.10;59.30;;;;;;1816028;77;20251;-78
2021/08/18 06:10:09;;;;;;;;;;;35.00;57.50;;;;;;1825607;76;20447;-77
2021/08/18 06:12:38;;;;;;;;;;;35.00;57.70;;;;;;1836936;76;20249;-82
2021/08/18 06:15:08;;;;;;;;;;;34.90;59.30;;;;;;1812544;76;20560;-81
2021/08/18 06:17:41;;;;;;;;;;;34.90;58.00;;;;;;1837706;75;20205;-79
2021/08/18 06:20:17;;;;;;;;;;;34.90;58.30;;;;;;1880103;73;20167;-78
2021/08/18 06:22:58;;;;;;;;;;;;;;;;;;;;;
2021/08/18 06:25:21;;;;;;;;;;;34.90;61.00;;;;;;1902904;73;20270;-77
2021/08/18 06:27:52;;;;;;;;;;;34.90;61.30;;;;;;1907383;74;20216;-79
2021/08/18 06:30:22;;;;;;;;;;;35.00;59.70;;;;;;1922373;74;20168;-80
2021/08/18 06:32:53;;;;;;;;;;;35.10;58.20;;;;;;1921493;74;20190;-79
2021/08/18 06:35:26;;;;;;;;;;;35.00;60.50;;;;;;1915562;73;20432;-78
2021/08/18 06:37:55;;;;;;;;;;;35.00;59.30;;;;;;1912532;74;20177;-78
2021/08/18 06:40:30;;;;;;;;;;;34.90;58.90;;;;;;1919537;73;20234;-77
2021/08/18 06:43:00;;;;;;;;;;;34.90;59.70;;;;;;1899550;74;20829;-78
2021/08/18 06:45:32;;;;;;;;;;;34.80;59.00;;;;;;1974164;72;20153;-77
2021/08/18 06:48:01;;;;;;;;;;;34.80;58.60;;;;;;1968422;72;20193;-78
2021/08/18 06:50:31;;;;;;;;;;;34.90;58.40;;;;;;1967110;72;20225;-76
2021/08/18 06:53:01;;;;;;;;;;;34.90;59.20;;;;;;1967196;71;20295;-78
2021/08/18 06:55:31;;;;;;;;;;;35.00;57.60;;;;;;1970460;72;20192;-76
2021/08/18 06:58:00;;;;;;;;;;;34.90;58.00;;;;;;1970493;70;20519;-79
2021/08/18 07:00:30;;;;;;;;;;;34.90;59.70;;;;;;1973161;72;20186;-77
2021/08/18 07:03:00;;;;;;;;;;;34.90;58.00;;;;;;1966901;71;20186;-76
2021/08/18 07:05:34;;;;;;;;;;;35.00;59.40;;;;;;1972274;71;20150;-76
2021/08/18 07:08:04;;;;;;;;;;;35.00;57.50;;;;;;1969744;72;20270;-76
2021/08/18 07:10:36;;;;;;;;;;;34.90;56.50;;;;;;1959279;72;20116;-78
2021/08/18 07:13:06;;;;;;;;;;;34.80;58.40;;;;;;1975728;72;20158;-80
2021/08/18 07:15:40;;;;;;;;;;;34.80;57.20;;;;;;1953554;71;20328;-77
2021/08/18 07:18:09;;;;;;;;;;;34.90;57.70;;;;;;1972607;70;20129;-78
2021/08/18 07:20:39;;;;;;;;;;;35.00;59.50;;;;;;1975968;71;20219;-76
2021/08/18 07:23:15;;;;;;;;;;;35.00;60.70;;;;;;1973174;71;20448;-77
2021/08/18 07:26:07;;;;;;;;;;;35.10;58.50;;;;;;1975035;71;20181;-77
2021/08/18 07:28:54;;;;;;;;;;;35.10;58.60;;;;;;1966053;71;20159;-78
2021/08/18 07:31:27;;;;;;;;;;;35.20;58.10;;;;;;1966124;70;20163;-77
2021/08/18 07:34:10;;;;;;;;;;;;;;;;;;;;;
2021/08/18 07:36:43;;;;;;;;;;;35.20;57.80;;;;;;1969620;71;20446;-79
2021/08/18 07:39:13;;;;;;;;;;;35.10;58.00;;;;;;1932085;73;20261;-79
2021/08/18 07:41:47;;;;;;;;;;;35.10;60.00;;;;;;1907507;74;20165;-76
2021/08/18 07:44:32;;;;;;;;;;;35.00;57.90;;;;;;1902229;73;20469;-77
2021/08/18 07:47:10;;;;;;;;;;;35.00;58.50;;;;;;1936433;73;20136;-77
2021/08/18 07:49:45;;;;;;;;;;;35.00;59.30;;;;;;1902972;73;20447;-79
2021/08/18 07:55:13;;;;;;;;;;;35.00;60.70;;;;;;1849402;76;20435;-79
2021/08/18 07:57:48;;;;;;;;;;;35.10;60.00;;;;;;1873460;74;20180;-80
2021/08/18 08:00:18;;;;;;;;;;;35.10;58.60;;;;;;1918071;73;20217;-78
2021/08/18 08:02:50;;;;;;;;;;;35.10;59.00;;;;;;1913989;73;20536;-79
2021/08/18 08:05:20;;;;;;;;;;;35.00;59.50;;;;;;1899819;75;20170;-78
2021/08/18 08:07:52;;;;;;;;;;;35.00;61.10;;;;;;1903081;74;20267;-80
2021/08/18 08:10:22;;;;;;;;;;;35.00;60.70;;;;;;1911216;73;20182;-80
2021/08/18 08:12:57;;;;;;;;;;;34.90;59.80;;;;;;1908084;73;20208;-77
2021/08/18 08:15:24;;;;;;;;;;;34.70;60.90;;;;;;1899528;73;20591;-78
2021/08/18 08:17:55;;;;;;;;;;;34.50;62.00;;;;;;1899829;73;20183;-78
2021/08/18 08:20:27;;;;;;;;;;;34.50;60.70;;;;;;1921160;73;20154;-78
2021/08/18 08:23:24;;;;;;;;;;;34.40;61.80;;;;;;1907931;73;20418;-77
2021/08/18 08:25:53;;;;;;;;;;;34.50;63.20;;;;;;1911256;73;20219;-79
2021/08/18 08:28:23;;;;;;;;;;;34.50;61.60;;;;;;1915956;73;20313;-79
2021/08/18 08:30:53;;;;;;;;;;;34.50;63.20;;;;;;1908006;72;20568;-79
2021/08/18 08:33:23;;;;;;;;;;;34.50;62.60;;;;;;1929611;72;20167;-79
2021/08/18 08:35:55;;;;;;;;;;;34.50;61.40;;;;;;1903853;73;20535;-78
2021/08/18 08:38:25;;;;;;;;;;;34.50;63.80;;;;;;1980619;71;20177;-77
2021/08/18 08:40:55;;;;;;;;;;;34.50;64.20;;;;;;1986589;71;20240;-77
2021/08/18 08:43:25;;;;;;;;;;;34.50;64.70;;;;;;1993430;70;20193;-77
2021/08/18 08:45:54;;;;;;;;;;;34.50;64.60;;;;;;1986044;71;20181;-76
2021/08/18 08:48:24;;;;;;;;;;;34.50;65.00;;;;;;1996680;71;20163;-79
2021/08/18 08:50:54;;;;;;;;;;;34.50;64.20;;;;;;1946043;71;20570;-82
2021/08/18 08:53:28;;;;;;;;;;;34.50;64.80;;;;;;1996256;71;20211;-78
2021/08/18 08:55:57;;;;;;;;;;;34.50;64.20;;;;;;1971181;71;20456;-79
2021/08/18 08:58:27;;;;;;;;;;;34.50;65.10;;;;;;1977526;71;20540;-78
2021/08/18 09:00:59;;;;;;;;;;;34.50;65.10;;;;;;1946845;71;20492;-77
2021/08/18 09:03:29;;;;;;;;;;;34.40;66.00;;;;;;1946331;72;20162;-77
2021/08/18 09:06:00;;;;;;;;;;;34.40;66.00;;;;;;1986336;71;20472;-78
2021/08/18 09:08:30;;;;;;;;;;;34.30;65.10;;;;;;1995803;71;20213;-78
2021/08/18 09:11:01;;;;;;;;;;;34.20;66.00;;;;;;1990159;71;20176;-78
2021/08/18 09:13:47;;;;;;;;;;;34.20;66.60;;;;;;1931919;72;20195;-78
2021/08/18 09:16:07;;;;;;;;;;;34.20;67.40;;;;;;1920146;73;20191;-78
2021/08/18 09:18:40;;;;;;;;;;;34.20;66.40;;;;;;1926863;72;20222;-79
2021/08/18 09:21:11;;;;;;;;;;;34.20;65.30;;;;;;1942975;73;20227;-78
2021/08/18 09:23:42;;;;;;;;;;;34.20;65.50;;;;;;1975461;72;20563;-83
2021/08/18 09:26:52;;;;;;;;;;;34.20;66.50;;;;;;1955137;72;20219;-79
2021/08/18 09:30:11;;;;;;;;;;;34.20;67.40;;;;;;1964593;71;20198;-79
2021/08/18 09:32:09;;;;;;;;;;;34.20;66.40;;;;;;1960225;72;20159;-79
2021/08/18 09:34:52;;;;;;;;;;;34.20;66.00;;;;;;1961692;71;20272;-79
2021/08/18 09:37:22;;;;;;;;;;;34.20;65.40;;;;;;1963667;71;20161;-79
2021/08/18 09:40:17;;;;;;;;;;;34.20;66.80;;;;;;1954086;72;20205;-80
2021/08/18 09:42:51;;;;;;;;;;;34.20;67.10;;;;;;1968594;71;20207;-80
2021/08/18 09:45:23;;;;;;;;;;;34.20;67.00;;;;;;1969965;71;20188;-81
2021/08/18 09:47:54;;;;;;;;;;;34.20;66.20;;;;;;1965054;71;20197;-78
2021/08/18 09:50:25;;;;;;;;;;;34.10;65.60;;;;;;1973189;70;20640;-80
2021/08/18 09:52:56;;;;;;;;;;;34.10;65.70;;;;;;1979421;71;20571;-79
2021/08/18 09:55:30;;;;;;;;;;;34.10;67.00;;;;;;1975352;71;20506;-81
2021/08/18 09:58:37;;;;;;;;;;;34.10;67.50;;;;;;1971640;71;20211;-80
2021/08/18 10:00:52;;;;;;;;;;;34.10;66.60;;;;;;1929658;72;20162;-79
2021/08/18 10:03:22;;;;;;;;;;;34.00;65.70;;;;;;1906277;73;20257;-79
2021/08/18 10:05:55;;;;;;;;;;;33.90;66.60;;;;;;1940096;72;20559;-78
2021/08/18 10:08:24;;;;;;;;;;;33.90;66.60;;;;;;1946155;73;20270;-79
2021/08/18 10:10:54;;;;;;;;;;;33.80;67.30;;;;;;1934127;73;20173;-79
2021/08/18 10:13:24;;;;;;;;;;;33.80;67.40;;;;;;1940008;72;20163;-79
2021/08/18 10:15:55;;;;;;;;;;;33.70;67.50;;;;;;1947843;72;20534;-79
2021/08/18 10:18:27;;;;;;;;;;;33.80;67.90;;;;;;1936456;72;20169;-79
2021/08/18 10:20:57;;;;;;;;;;;33.70;68.10;;;;;;1941362;72;20259;-79
2021/08/18 10:23:30;;;;;;;;;;;33.70;68.60;;;;;;1938711;72;20167;-79
2021/08/18 10:26:04;;;;;;;;;;;33.60;68.40;;;;;;1938643;72;20168;-79
2021/08/18 10:28:35;;;;;;;;;;;33.60;68.90;;;;;;1949470;72;20220;-78
2021/08/18 10:31:04;;;;;;;;;;;33.60;69.50;;;;;;1926541;72;20229;-79
2021/08/18 10:33:35;;;;;;;;;;;33.50;69.30;;;;;;1948022;72;20287;-79
2021/08/18 10:36:05;;;;;;;;;;;33.50;70.00;;;;;;1918121;72;20154;-79
2021/08/18 10:38:35;;;;;;;;;;;33.50;69.40;;;;;;1955993;72;20202;-79
2021/08/18 10:41:05;;;;;;;;;;;33.40;69.90;;;;;;1932452;72;20526;-81
2021/08/18 10:43:37;;;;;;;;;;;33.40;69.70;;;;;;1919728;73;20184;-77
2021/08/18 10:46:11;;;;;;;;;;;33.30;69.50;;;;;;1927380;72;20522;-79
2021/08/18 10:48:55;;;;;;;;;;;33.30;69.30;;;;;;1977068;71;20499;-80
2021/08/18 10:51:27;;;;;;;;;;;33.30;70.10;;;;;;1963069;71;20154;-79
2021/08/18 10:53:57;;;;;;;;;;;33.30;69.40;;;;;;1972644;71;20161;-80
2021/08/18 10:56:30;;;;;;;;;;;33.40;69.30;;;;;;1973035;71;20407;-79
2021/08/18 10:59:02;;;;;;;;;;;33.30;69.60;;;;;;1996029;71;20183;-79
2021/08/18 11:01:33;;;;;;;;;;;33.30;69.80;;;;;;1977491;72;20187;-81
2021/08/18 11:04:12;;;;;;;;;;;33.30;69.50;;;;;;1987698;71;20215;-80
2021/08/18 11:06:43;;;;;;;;;;;33.30;69.80;;;;;;1976311;72;20451;-80
2021/08/18 11:09:14;;;;;;;;;;;33.30;69.50;;;;;;1987218;71;20169;-80
2021/08/18 11:11:44;;;;;;;;;;;33.30;69.90;;;;;;1970056;71;20181;-80
2021/08/18 11:14:13;;;;;;;;;;;33.30;70.00;;;;;;1980667;71;20450;-80
2021/08/18 11:16:43;;;;;;;;;;;33.30;70.00;;;;;;1939176;73;20522;-79
2021/08/18 11:19:14;;;;;;;;;;;33.30;70.40;;;;;;1962569;72;20214;-79
2021/08/18 11:21:44;;;;;;;;;;;33.30;70.30;;;;;;1957617;72;20159;-79
2021/08/18 11:24:17;;;;;;;;;;;33.30;71.00;;;;;;1966848;72;20197;-79
2021/08/18 11:26:49;;;;;;;;;;;33.20;71.60;;;;;;1959550;72;20215;-80
2021/08/18 11:29:21;;;;;;;;;;;33.20;69.90;;;;;;1940840;72;20573;-80
2021/08/18 11:31:53;;;;;;;;;;;33.20;69.60;;;;;;1945583;72;20467;-80
2021/08/18 11:34:24;;;;;;;;;;;33.10;69.90;;;;;;1938306;72;20176;-80
2021/08/18 11:36:55;;;;;;;;;;;33.10;70.20;;;;;;1949677;72;20443;-80
2021/08/18 11:39:24;;;;;;;;;;;33.10;70.20;;;;;;1948004;72;20515;-79
2021/08/18 11:41:54;;;;;;;;;;;33.10;70.60;;;;;;1935249;72;20528;-80
2021/08/18 11:44:27;;;;;;;;;;;33.00;70.80;;;;;;1948672;72;20183;-80
2021/08/18 11:46:58;;;;;;;;;;;33.00;71.10;;;;;;1945385;73;20164;-80
2021/08/18 11:49:30;;;;;;;;;;;33.00;71.30;;;;;;1942744;73;20168;-78
2021/08/18 11:51:59;;;;;;;;;;;33.00;71.70;;;;;;1950427;72;20191;-80
2021/08/18 11:54:29;;;;;;;;;;;32.90;71.70;;;;;;1948446;72;20185;-80
2021/08/18 11:57:02;;;;;;;;;;;32.90;71.90;;;;;;1908237;73;20174;-79
2021/08/18 11:59:31;;;;;;;;;;;32.90;72.30;;;;;;1933754;72;20207;-78
2021/08/18 12:02:01;;;;;;;;;;;32.80;72.20;;;;;;1927694;72;20400;-79
2021/08/18 12:04:32;;;;;;;;;;;32.90;72.30;;;;;;1946044;72;20137;-80
2021/08/18 12:07:03;;;;;;;;;;;32.80;72.30;;;;;;1936665;73;20176;-78
2021/08/18 12:09:33;;;;;;;;;;;32.80;72.30;;;;;;1930975;72;20506;-80
2021/08/18 12:12:04;;;;;;;;;;;32.80;71.70;;;;;;1904728;74;20532;-80
2021/08/18 12:14:35;;;;;;;;;;;32.80;71.80;;;;;;1902604;74;20205;-80
2021/08/18 12:17:05;;;;;;;;;;;32.80;72.70;;;;;;1899056;74;20167;-79
2021/08/18 12:19:36;;;;;;;;;;;32.80;73.00;;;;;;1941268;72;20163;-79
2021/08/18 12:22:06;;;;;;;;;;;32.80;73.50;;;;;;1927349;72;20221;-79
2021/08/18 12:24:39;;;;;;;;;;;32.80;73.80;;;;;;1937821;72;20174;-80
2021/08/18 12:27:11;;;;;;;;;;;32.80;73.80;;;;;;1955949;72;20214;-80
2021/08/18 12:29:44;;;;;;;;;;;32.70;74.10;;;;;;1946617;74;20164;-82
2021/08/18 12:32:14;;;;;;;;;;;32.70;74.20;;;;;;1887632;75;20185;-80
2021/08/18 12:34:45;;;;;;;;;;;32.70;74.20;;;;;;1929905;72;20490;-81
2021/08/18 12:37:16;;;;;;;;;;;32.70;74.40;;;;;;1974831;72;20202;-82
2021/08/18 12:39:49;;;;;;;;;;;32.60;74.10;;;;;;1904454;74;20700;-89
2021/08/18 12:42:20;;;;;;;;;;;32.60;74.00;;;;;;1930396;73;20128;-89
2021/08/18 12:45:10;;;;;;;;;;;32.60;74.00;;;;;;1930735;72;20240;-91
2021/08/18 12:48:01;;;;;;;;;;;;;;;;;;;;;
2021/08/18 12:50:33;;;;;;;;;;;32.60;74.30;;;;;;1873636;76;20157;-89
2021/08/18 12:53:16;;;;;;;;;;;32.60;74.50;;;;;;1932410;73;20281;-89
2021/08/18 12:55:48;;;;;;;;;;;32.50;74.00;;;;;;1901534;74;20209;-89
2021/08/18 12:58:20;;;;;;;;;;;32.60;74.30;;;;;;1939941;72;20206;-89
2021/08/18 13:00:57;;;;;;;;;;;32.50;74.50;;;;;;1902153;74;20599;-90
2021/08/18 13:03:32;;;;;;;;;;;;;;;;;;;;;
2021/08/18 13:06:18;;;;;;;;;;;32.50;74.50;;;;;;1885792;74;20468;-89
2021/08/18 13:08:50;;;;;;;;;;;32.50;74.40;;;;;;1869098;76;20170;-90
2021/08/18 13:11:24;;;;;;;;;;;32.50;74.40;;;;;;1888869;75;20889;-89
2021/08/18 13:13:55;;;;;;;;;;;32.50;74.70;;;;;;1918422;72;20177;-89
2021/08/18 13:16:38;;;;;;;;;;;;;;;;;;;;;
2021/08/18 13:19:11;;;;;;;;;;;32.50;77.10;;;;;;1907899;73;20202;-90
2021/08/18 13:21:58;;;;;;;;;;;32.40;76.40;;;;;;1900717;73;20217;-89
2021/08/18 13:24:30;;;;;;;;;;;32.40;76.80;;;;;;1902146;73;20203;-88
2021/08/18 13:27:21;;;;;;;;;;;32.40;77.00;;;;;;1929030;72;20229;-90
2021/08/18 13:29:57;;;;;;;;;;;32.40;76.40;;;;;;1921948;72;20178;-89
2021/08/18 13:32:28;;;;;;;;;;;32.40;76.20;;;;;;1949845;71;20149;-90
2021/08/18 13:35:03;;;;;;;;;;;32.40;76.40;;;;;;1949659;71;20547;-90
2021/08/18 13:37:53;;;;;;;;;;;32.40;76.90;;;;;;1952350;71;20411;-90
2021/08/18 13:40:26;;;;;;;;;;;32.30;77.00;;;;;;1929913;72;20500;-89
2021/08/18 13:43:00;;;;;;;;;;;32.30;77.20;;;;;;1911257;72;20184;-90
2021/08/18 13:48:53;;;;;;;;;;;32.30;77.30;;;;;;1956911;72;20220;-90
2021/08/18 13:51:37;;;;;;;;;;;32.30;77.60;;;;;;1922617;72;20243;-91
2021/08/18 13:54:26;;;;;;;;;;;32.30;77.30;;;;;;1953313;72;20177;-90
2021/08/18 13:57:25;;;;;;;;;;;;;;;;;;;;;
2021/08/18 13:59:49;;;;;;;;;;;32.20;77.20;;;;;;1843049;76;20127;-91
2021/08/18 14:02:42;;;;;;;;;;;32.20;77.60;;;;;;1850614;76;20224;-91
2021/08/18 14:05:17;;;;;;;;;;;32.20;77.40;;;;;;1822346;77;20279;-92
2021/08/18 14:07:42;;;;;;;;;;;32.20;77.60;;;;;;1824458;77;20142;-91
2021/08/18 14:10:21;;;;;;;;;;;32.30;78.00;;;;;;1833376;77;20195;-91
2021/08/18 14:13:09;;;;;;;;;;;32.30;78.10;;;;;;1835572;76;20274;-91
2021/08/18 14:15:39;;;;;;;;;;;32.20;77.80;;;;;;1839143;75;20409;-91
2021/08/18 14:18:17;;;;;;;;;;;32.20;78.20;;;;;;1864022;75;20484;-90
2021/08/18 14:21:09;;;;;;;;;;;32.20;77.90;;;;;;1803109;77;20230;-91
2021/08/18 14:24:00;;;;;;;;;;;32.20;77.70;;;;;;1867220;75;20139;-90
2021/08/18 14:26:42;;;;;;;;;;;32.10;77.80;;;;;;1906393;73;20302;-91
2021/08/18 14:29:16;;;;;;;;;;;32.10;77.80;;;;;;1862380;74;20140;-89
2021/08/18 14:31:50;;;;;;;;;;;32.10;77.80;;;;;;1893608;73;20250;-90
2021/08/18 14:34:53;;;;;;;;;;;;;;;;;;;;;
2021/08/18 14:37:40;;;;;;;;;;;32.10;78.30;;;;;;1801687;76;20268;-91
2021/08/18 14:40:05;;;;;;;;;;;32.00;79.00;;;;;;1768100;77;20547;-90
2021/08/18 14:42:57;;;;;;;;;;;32.10;78.10;;;;;;1719619;81;20290;-92
2021/08/18 14:45:50;;;;;;;;;;;32.10;78.10;;;;;;1695329;83;20233;-91
2021/08/18 14:48:29;;;;;;;;;;;32.00;78.40;;;;;;1674249;84;20160;-90
2021/08/18 14:51:04;;;;;;;;;;;32.00;78.20;;;;;;1650468;85;20179;-90
2021/08/18 14:54:19;;;;;;;;;;;;;;;;;;;;;
2021/08/18 14:56:54;;;;;;;;;;;31.90;78.20;;;;;;1654029;85;20266;-91
2021/08/18 15:06:32;;;;;;;;;;;31.90;79.00;;;;;;1954966;71;20473;-91
2021/08/18 15:09:11;;;;;;;;;;;31.90;79.20;;;;;;1938510;72;20220;-92
2021/08/18 15:11:46;;;;;;;;;;;31.90;79.10;;;;;;1928509;73;20207;-90
2021/08/18 15:14:16;;;;;;;;;;;31.80;79.30;;;;;;1932144;72;20276;-91
2021/08/18 15:16:52;;;;;;;;;;;31.80;79.00;;;;;;1929725;72;20150;-91
2021/08/18 15:19:23;;;;;;;;;;;31.80;79.40;;;;;;1938975;72;20190;-92
2021/08/18 15:21:58;;;;;;;;;;;31.80;79.50;;;;;;1911115;72;20632;-91